Portada
METAR-TAF:

METAR-TAF

Aeroports :

Tôlanaro, Madagascar

latitud: 25-02S, longitud: 046-57E, altitud: 8 m

Observació

L'informe es va fer fa 58 minuts, a les 02:00 UTC
Vent 4 kt del Oest/Sud-Oest
Temperatura 21°C
Humitat 94%
Pressió 1019 hPa
Visibilitat 10 km o més
Núvols disperses a una alçada de 1600 ft
Núvols disperses a una alçada de 3300 ft
xàfecs en les proximitats

METAR: FMSD 240200Z 24004KT 9999 VCSH SCT016 SCT033 21/20 Q1019

Hora: 05:58 (02:58 UTC)

Pronòstic

L'informe es va fer fa 3 hores i 58 minuts, a les 23:00 UTC
Pronòstic vàlid del 24 a les 00 UTC al 24 a les 24 UTC
Vent 4 kt amb direcció variable
Visibilitat 10 km o més
Escasses núvols a una alçada de 1600 ft
Cel ennuvolat a una alçada de 3300 ft
Evolucionant progressivament
l' 24 a les 04 UTC al 24 a les 06 UTC
Vent 10 kt del Sud/Sud-Est
Temporalment
l' 24 a les 06 UTC al 24 a les 20 UTC
Visibilitat: 4000 m
pluja

TAF: FMSD 232300Z 2400/2424 VRB04KT 9999 FEW016 BKN033 BECMG 2404/2406 16010KT TEMPO 2406/2420 4000 RA

Observacions i pronòstics meteorològics de més de 4000 aeroports (METAR i TAF).

Les estacions disponibles són els punts grocs i vermells al mapa.

Posi el ratolí al punt desitjat per veure el nom de l'estació.

Feu clic per veure les observacions i els pronòstics meteorològics.

Per canviar el mapa: feu clic els botons verds amb una creu de color negre per apropar; al botó verd amb un guió per allunyar la imatge; o en les fletxes verdes per a mapes adjacents.


METAR-TAF: